• Join FlightAware (Why Join?)
  • Login
  • US Flag 
11:11AM EDT


 

Airport Tracker/Info


-or-


 

Live Flight TrackerFlight Track Log ✈ N364PH ✈ 22-Apr-2013 ✈ KITH - KEWR

Flight Track Log - Related Links

Times and Time Zones

All times are in EDT time to prevent confusion due to time zone crossing. See the N364PH flight status page for this flight to view local times or setup timezone preferences in your user account.

Time Position Orientation Groundspeed Altitude Reporting Facility
EDT Latitude Longitude Course Direction KTS MPH feet Rate Location/Type
10:04AM 42.3672 -76.4342 119° Southeast 192 221 7,400  Level New York Center
10:05AM 42.3517 -76.3653 107° East 237 273 8,000 1,020 Climbing New York Center
10:07AM 42.3161 -76.2339 110° East 227 261 10,300 1,260 Climbing Boston Center
10:08AM 42.2581 -75.8427 119° Southeast  Level FlightAware Approximate
10:08AM 42.2917 -76.1508 112° Southeast 221 254 11,600  Level Boston Center
10:09AM 42.2290 -75.7730 119° Southeast  Level FlightAware Approximate
10:09AM 42.2753 -76.0797 107° East 211 243 13,100  Level Boston Center
10:10AM 42.2001 -75.7034 119° Southeast  Level FlightAware Approximate
10:10AM 42.2547 -76.0028 110° East 211 243 14,400  Level Boston Center
10:11AM 42.2344 -75.9203 108° East 218 251 15,000 300 Climbing Boston Center
10:12AM 42.2058 -75.8289 113° Southeast 236 272 15,000  Level Boston Center
10:13AM 42.1817 -75.7353 109° East 259 298 15,000  Level Boston Center
10:14AM 42.1553 -75.6386 110° East 259 298 15,000  Level Boston Center
10:15AM 42.1286 -75.5447 111° Southeast 265 305 15,000  Level Boston Center
10:16AM 42.1019 -75.4511 111° Southeast 265 305 15,100  Climbing Boston Center
10:17AM 42.0753 -75.3575 111° Southeast 265 305 15,100  Level Boston Center
10:18AM 42.0483 -75.2694 112° Southeast 265 305 15,100 -60 Level Boston Center
10:19AM 42.0150 -75.1814 117° Southeast 259 298 15,000 -60 Descending Boston Center
10:20AM 41.9756 -75.0847 119° Southeast 265 305 15,000  Level Boston Center
10:21AM 41.9442 -75.0025 117° Southeast 265 305 15,000 -540 Level Boston Center
10:22AM 41.8958 -74.9225 129° Southeast 265 305 14,000 -1,200 Descending Boston Center
10:23AM 41.8494 -74.8564 133° Southeast 265 305 12,600 -1,500 Descending Boston Center
10:24AM 41.7925 -74.7819 136° Southeast 265 305 11,000 -1,500 Descending Boston Center
10:25AM 41.7481 -74.7192 133° Southeast 260 299 9,600 -1,440 Descending Boston Center
10:26AM 41.6933 -74.6447 135° Southeast 260 299 8,200 -1,260 Descending Boston Center
10:27AM 41.6486 -74.5850 135° Southeast 260 299 7,100 -960 Descending Boston Center
10:28AM 41.5822 -74.5578 163° South 225 259 6,300 -600 Descending Boston Center
10:29AM 41.5217 -74.5722 190° South 236 272 6,000 -180 Descending Boston Center
10:30AM 41.4506 -74.5839 187° South 236 272 6,000  Level Boston Center
10:31AM 41.3667 -74.6167 196° South 236 272 6,000  Level New York TRACON
10:32AM 41.2833 -74.6333 189° South 238 274 6,000  Level New York TRACON
10:33AM 41.2333 -74.6667 207° Southwest 239 275 6,000  Level New York TRACON
10:34AM 41.1667 -74.6500 169° South 233 268 6,000  Level New York TRACON
10:35AM 41.1000 -74.6333 169° South 233 268 6,000  Level New York TRACON
10:36AM 41.0333 -74.6000 159° South 229 264 6,000  Level New York TRACON
10:37AM 41.0167 -74.5333 108° East 228 262 6,000  Level New York TRACON
10:38AM 40.9667 -74.5500 194° South 248 285 6,000  Level New York TRACON
10:39AM 40.9000 -74.5833 201° Southwest 240 276 6,000  Level New York TRACON
10:40AM 40.8333 -74.6000 191° South 238 274 6,000 -180 Level New York TRACON
10:41AM 40.7667 -74.6000 180° South 235 270 5,700 -540 Descending New York TRACON
10:42AM 40.7000 -74.5833 169° South 225 259 5,000 -360 Descending New York TRACON
10:43AM 40.6333 -74.5833 180° South 222 255 5,000  Level New York TRACON
10:44AM 40.5833 -74.5500 153° Southeast 203 234 5,000 -540 Level New York TRACON
10:45AM 40.5333 -74.5000 143° Southeast 209 241 4,000 -960 Descending New York TRACON
10:46AM 40.5167 -74.4333 108° East 207 238 3,100 -540 Descending New York TRACON
10:47AM 40.5000 -74.3667 108° East 198 228 3,000 -240 Descending New York TRACON
10:48AM 40.5167 -74.3000 72° East 199 229 2,700 -480 Descending New York TRACON
10:50AM 40.5500 -74.2500 49° Northeast 175 201 2,000 -360 Descending New York TRACON
10:50AM 40.6000 -74.2333 14° North 164 189 2,000 -480 Level New York TRACON
10:52AM 40.6333 -74.2000 37° Northeast 148 170 1,100 -840 Descending New York TRACON